Karaftit, Russia
Current Conditions -  °F | °C
As of 1:30 PM on Thursday 27 Nov 2014 (Local Time) from UIAA Reporting Station
Scattered Clouds Scattered Clouds  
Wind Chill:   Ceiling: Unl
Heat Index:   Visibility: 6mi
Dew Point: -11°   Wind: 2mph
Humidity: 51%   Direction: NA
Pressure: 29.94"   Gusts: NA
Location:  54.2°N, 111.91°E
Report Text: UIAA 270530Z VRB01MPS 9999 SCT200 M16/M24 Q1014 NOSIG RMKQFE702 29CLRD70
Loading
Personal Weather Stations






























Interactive Weather Map New forecast layout! Learn more

10-Day Weather Forecast

Advertisements
Track Severe Weather on mobile